sensor_id;sensor_type;location;lat;lon;timestamp;temperature;humidity
33023;DHT22;19390;51.460;5.710;2022-11-04T00:01:45;10.10;99.90
33023;DHT22;19390;51.460;5.710;2022-11-04T00:04:12;10.10;99.90
33023;DHT22;19390;51.460;5.710;2022-11-04T00:06:39;10.20;99.90
33023;DHT22;19390;51.460;5.710;2022-11-04T00:09:08;10.10;99.90
33023;DHT22;19390;51.460;5.710;2022-11-04T00:11:34;10.20;99.90
33023;DHT22;19390;51.460;5.710;2022-11-04T00:14:18;10.20;99.90
33023;DHT22;19390;51.460;5.710;2022-11-04T00:16:44;10.20;99.90
33023;DHT22;19390;51.460;5.710;2022-11-04T00:19:28;10.20;99.90
33023;DHT22;19390;51.460;5.710;2022-11-04T00:22:14;10.10;99.90
33023;DHT22;19390;51.460;5.710;2022-11-04T00:24:58;10.00;99.90
33023;DHT22;19390;51.460;5.710;2022-11-04T00:27:42;9.90;99.90
33023;DHT22;19390;51.460;5.710;2022-11-04T00:30:26;9.70;99.90
33023;DHT22;19390;51.460;5.710;2022-11-04T00:32:52;9.60;99.90
33023;DHT22;19390;51.460;5.710;2022-11-04T00:35:36;9.60;99.90
33023;DHT22;19390;51.460;5.710;2022-11-04T00:38:02;9.50;99.90
33023;DHT22;19390;51.460;5.710;2022-11-04T00:40:28;9.50;99.90
33023;DHT22;19390;51.460;5.710;2022-11-04T00:42:53;9.50;99.90
33023;DHT22;19390;51.460;5.710;2022-11-04T00:45:19;9.50;99.90
33023;DHT22;19390;51.460;5.710;2022-11-04T00:47:44;9.50;99.90
33023;DHT22;19390;51.460;5.710;2022-11-04T00:50:10;9.30;99.90
33023;DHT22;19390;51.460;5.710;2022-11-04T00:52:36;9.40;99.90
33023;DHT22;19390;51.460;5.710;2022-11-04T00:55:02;9.30;99.90
33023;DHT22;19390;51.460;5.710;2022-11-04T00:57:28;9.30;99.90
33023;DHT22;19390;51.460;5.710;2022-11-04T00:59:54;9.20;99.90
33023;DHT22;19390;51.460;5.710;2022-11-04T01:02:19;9.20;99.90
33023;DHT22;19390;51.460;5.710;2022-11-04T01:04:46;9.30;99.90
33023;DHT22;19390;51.460;5.710;2022-11-04T01:07:11;9.20;99.90
33023;DHT22;19390;51.460;5.710;2022-11-04T01:09:37;9.20;99.90
33023;DHT22;19390;51.460;5.710;2022-11-04T01:12:03;9.20;99.90
33023;DHT22;19390;51.460;5.710;2022-11-04T01:14:29;9.20;99.90
33023;DHT22;19390;51.460;5.710;2022-11-04T01:16:54;9.10;99.90
33023;DHT22;19390;51.460;5.710;2022-11-04T01:19:20;9.20;99.90
33023;DHT22;19390;51.460;5.710;2022-11-04T01:21:49;9.30;99.90
33023;DHT22;19390;51.460;5.710;2022-11-04T01:24:15;9.40;99.90
33023;DHT22;19390;51.460;5.710;2022-11-04T01:26:41;9.40;99.90
33023;DHT22;19390;51.460;5.710;2022-11-04T01:29:06;9.40;99.90
33023;DHT22;19390;51.460;5.710;2022-11-04T01:31:32;9.40;99.90
33023;DHT22;19390;51.460;5.710;2022-11-04T01:33:58;9.30;99.90
33023;DHT22;19390;51.460;5.710;2022-11-04T01:36:25;9.30;99.90
33023;DHT22;19390;51.460;5.710;2022-11-04T01:38:51;9.20;99.90
33023;DHT22;19390;51.460;5.710;2022-11-04T01:41:25;9.30;99.90
33023;DHT22;19390;51.460;5.710;2022-11-04T01:43:55;9.30;99.90
33023;DHT22;19390;51.460;5.710;2022-11-04T01:48:57;9.20;99.90
33023;DHT22;19390;51.460;5.710;2022-11-04T01:51:24;9.10;99.90
33023;DHT22;19390;51.460;5.710;2022-11-04T01:53:51;9.00;99.90
33023;DHT22;19390;51.460;5.710;2022-11-04T01:56:19;9.00;99.90
33023;DHT22;19390;51.460;5.710;2022-11-04T01:58:48;9.00;99.90
33023;DHT22;19390;51.460;5.710;2022-11-04T02:01:15;9.00;99.90
33023;DHT22;19390;51.460;5.710;2022-11-04T02:03:49;9.00;99.90
33023;DHT22;19390;51.460;5.710;2022-11-04T02:06:16;9.00;99.90
33023;DHT22;19390;51.460;5.710;2022-11-04T02:08:44;9.00;99.90
33023;DHT22;19390;51.460;5.710;2022-11-04T02:11:10;8.90;99.90
33023;DHT22;19390;51.460;5.710;2022-11-04T02:13:56;8.90;99.90
33023;DHT22;19390;51.460;5.710;2022-11-04T02:16:39;8.80;99.90
33023;DHT22;19390;51.460;5.710;2022-11-04T02:25:00;8.70;99.90
33023;DHT22;19390;51.460;5.710;2022-11-04T02:30:20;8.60;99.90
33023;DHT22;19390;51.460;5.710;2022-11-04T02:35:53;8.70;99.90
33023;DHT22;19390;51.460;5.710;2022-11-04T02:59:29;8.20;99.90
33023;DHT22;19390;51.460;5.710;2022-11-04T03:09:32;8.10;99.90
33023;DHT22;19390;51.460;5.710;2022-11-04T03:12:03;8.00;99.90
33023;DHT22;19390;51.460;5.710;2022-11-04T03:14:36;8.20;99.90
33023;DHT22;19390;51.460;5.710;2022-11-04T03:17:09;8.10;99.90
33023;DHT22;19390;51.460;5.710;2022-11-04T03:19:55;8.10;99.90
33023;DHT22;19390;51.460;5.710;2022-11-04T03:22:23;8.20;99.90
33023;DHT22;19390;51.460;5.710;2022-11-04T03:24:50;8.10;99.90
33023;DHT22;19390;51.460;5.710;2022-11-04T03:27:24;8.10;99.90
33023;DHT22;19390;51.460;5.710;2022-11-04T03:29:58;8.10;99.90
33023;DHT22;19390;51.460;5.710;2022-11-04T03:35:07;8.20;99.90
33023;DHT22;19390;51.460;5.710;2022-11-04T03:37:33;8.20;99.90
33023;DHT22;19390;51.460;5.710;2022-11-04T03:39:59;8.40;99.90
33023;DHT22;19390;51.460;5.710;2022-11-04T03:42:26;8.30;99.90
33023;DHT22;19390;51.460;5.710;2022-11-04T03:44:55;8.30;99.90
33023;DHT22;19390;51.460;5.710;2022-11-04T03:47:26;8.30;99.90
33023;DHT22;19390;51.460;5.710;2022-11-04T03:49:59;8.30;99.90
33023;DHT22;19390;51.460;5.710;2022-11-04T03:52:26;8.40;99.90
33023;DHT22;19390;51.460;5.710;2022-11-04T03:54:52;8.30;99.90
33023;DHT22;19390;51.460;5.710;2022-11-04T03:57:38;8.20;99.90
33023;DHT22;19390;51.460;5.710;2022-11-04T04:00:13;8.30;99.90
33023;DHT22;19390;51.460;5.710;2022-11-04T04:05:25;8.20;99.90
33023;DHT22;19390;51.460;5.710;2022-11-04T04:13:39;7.90;99.90
33023;DHT22;19390;51.460;5.710;2022-11-04T04:18:50;7.70;99.90
33023;DHT22;19390;51.460;5.710;2022-11-04T04:21:20;7.70;99.90
33023;DHT22;19390;51.460;5.710;2022-11-04T04:23:48;7.70;99.90
33023;DHT22;19390;51.460;5.710;2022-11-04T04:26:34;7.60;99.90
33023;DHT22;19390;51.460;5.710;2022-11-04T04:29:21;7.40;99.90
33023;DHT22;19390;51.460;5.710;2022-11-04T04:31:48;7.30;99.90
33023;DHT22;19390;51.460;5.710;2022-11-04T04:34:16;7.20;99.90
33023;DHT22;19390;51.460;5.710;2022-11-04T04:36:53;7.20;99.90
33023;DHT22;19390;51.460;5.710;2022-11-04T04:39:23;7.00;99.90
33023;DHT22;19390;51.460;5.710;2022-11-04T04:42:09;7.00;99.90
33023;DHT22;19390;51.460;5.710;2022-11-04T04:44:54;7.00;99.90
33023;DHT22;19390;51.460;5.710;2022-11-04T04:47:37;6.90;99.90
33023;DHT22;19390;51.460;5.710;2022-11-04T04:50:04;6.90;99.90
33023;DHT22;19390;51.460;5.710;2022-11-04T04:52:33;6.90;99.90
33023;DHT22;19390;51.460;5.710;2022-11-04T04:54:59;7.00;99.90
33023;DHT22;19390;51.460;5.710;2022-11-04T04:57:24;6.80;99.90
33023;DHT22;19390;51.460;5.710;2022-11-04T04:59:50;6.80;99.90
33023;DHT22;19390;51.460;5.710;2022-11-04T05:02:16;7.00;99.90
33023;DHT22;19390;51.460;5.710;2022-11-04T05:04:41;6.80;99.90
33023;DHT22;19390;51.460;5.710;2022-11-04T05:07:07;6.80;99.90
33023;DHT22;19390;51.460;5.710;2022-11-04T05:09:34;6.80;99.90
33023;DHT22;19390;51.460;5.710;2022-11-04T05:12:00;6.80;99.90
33023;DHT22;19390;51.460;5.710;2022-11-04T05:14:26;6.60;99.90
33023;DHT22;19390;51.460;5.710;2022-11-04T05:16:51;6.70;99.90
33023;DHT22;19390;51.460;5.710;2022-11-04T05:19:17;6.60;99.90
33023;DHT22;19390;51.460;5.710;2022-11-04T05:21:43;6.40;99.90
33023;DHT22;19390;51.460;5.710;2022-11-04T05:56:30;6.60;99.90
33023;DHT22;19390;51.460;5.710;2022-11-04T05:58:56;6.70;99.90
33023;DHT22;19390;51.460;5.710;2022-11-04T06:01:31;6.70;99.90
33023;DHT22;19390;51.460;5.710;2022-11-04T06:03:58;6.70;99.90
33023;DHT22;19390;51.460;5.710;2022-11-04T06:06:27;6.70;99.90
33023;DHT22;19390;51.460;5.710;2022-11-04T06:08:53;6.70;99.90
33023;DHT22;19390;51.460;5.710;2022-11-04T06:11:20;6.80;99.90
33023;DHT22;19390;51.460;5.710;2022-11-04T06:13:45;7.00;99.90
33023;DHT22;19390;51.460;5.710;2022-11-04T06:16:11;7.00;99.90
33023;DHT22;19390;51.460;5.710;2022-11-04T06:18:37;7.10;99.90
33023;DHT22;19390;51.460;5.710;2022-11-04T06:23:42;7.10;99.90
33023;DHT22;19390;51.460;5.710;2022-11-04T06:26:08;7.10;99.90
33023;DHT22;19390;51.460;5.710;2022-11-04T06:28:34;7.10;99.90
33023;DHT22;19390;51.460;5.710;2022-11-04T06:31:02;7.10;99.90
33023;DHT22;19390;51.460;5.710;2022-11-04T06:33:29;7.10;99.90
33023;DHT22;19390;51.460;5.710;2022-11-04T06:35:59;7.00;99.90
33023;DHT22;19390;51.460;5.710;2022-11-04T06:38:25;7.00;99.90
33023;DHT22;19390;51.460;5.710;2022-11-04T06:40:51;6.90;99.90
33023;DHT22;19390;51.460;5.710;2022-11-04T06:43:17;6.90;99.90
33023;DHT22;19390;51.460;5.710;2022-11-04T06:45:42;6.80;99.90
33023;DHT22;19390;51.460;5.710;2022-11-04T06:48:08;6.80;99.90
33023;DHT22;19390;51.460;5.710;2022-11-04T06:50:33;6.80;99.90
33023;DHT22;19390;51.460;5.710;2022-11-04T06:52:59;6.80;99.90
33023;DHT22;19390;51.460;5.710;2022-11-04T06:55:25;6.70;99.90
33023;DHT22;19390;51.460;5.710;2022-11-04T06:57:50;6.90;99.90
33023;DHT22;19390;51.460;5.710;2022-11-04T07:00:16;7.00;99.90
33023;DHT22;19390;51.460;5.710;2022-11-04T07:02:42;7.10;99.90
33023;DHT22;19390;51.460;5.710;2022-11-04T07:05:08;7.20;99.90
33023;DHT22;19390;51.460;5.710;2022-11-04T07:07:34;7.30;99.90
33023;DHT22;19390;51.460;5.710;2022-11-04T07:09:59;7.40;99.90
33023;DHT22;19390;51.460;5.710;2022-11-04T07:47:17;8.10;99.90
33023;DHT22;19390;51.460;5.710;2022-11-04T07:49:42;8.30;99.90
33023;DHT22;19390;51.460;5.710;2022-11-04T07:52:08;8.40;99.90
33023;DHT22;19390;51.460;5.710;2022-11-04T07:54:34;8.50;99.90
33023;DHT22;19390;51.460;5.710;2022-11-04T07:57:00;8.70;99.90
33023;DHT22;19390;51.460;5.710;2022-11-04T07:59:25;8.70;99.90
33023;DHT22;19390;51.460;5.710;2022-11-04T08:01:51;8.90;99.90
33023;DHT22;19390;51.460;5.710;2022-11-04T08:04:18;8.90;99.90
33023;DHT22;19390;51.460;5.710;2022-11-04T08:06:44;8.80;99.90
33023;DHT22;19390;51.460;5.710;2022-11-04T08:09:09;8.90;99.90
33023;DHT22;19390;51.460;5.710;2022-11-04T08:11:35;9.00;99.90
33023;DHT22;19390;51.460;5.710;2022-11-04T08:14:02;9.00;99.90
33023;DHT22;19390;51.460;5.710;2022-11-04T08:16:28;9.10;99.90
33023;DHT22;19390;51.460;5.710;2022-11-04T08:18:54;9.20;99.90
33023;DHT22;19390;51.460;5.710;2022-11-04T08:21:26;9.20;99.90
33023;DHT22;19390;51.460;5.710;2022-11-04T08:23:52;9.30;99.90
33023;DHT22;19390;51.460;5.710;2022-11-04T08:26:19;9.30;99.90
33023;DHT22;19390;51.460;5.710;2022-11-04T08:28:45;9.30;99.90
33023;DHT22;19390;51.460;5.710;2022-11-04T08:33:37;9.20;99.90
33023;DHT22;19390;51.460;5.710;2022-11-04T08:36:15;9.40;99.90
33023;DHT22;19390;51.460;5.710;2022-11-04T08:38:41;10.60;99.90
33023;DHT22;19390;51.460;5.710;2022-11-04T08:41:08;10.60;99.90
33023;DHT22;19390;51.460;5.710;2022-11-04T08:43:34;10.10;99.90
33023;DHT22;19390;51.460;5.710;2022-11-04T08:46:00;10.00;99.90
33023;DHT22;19390;51.460;5.710;2022-11-04T08:48:26;10.00;99.90
33023;DHT22;19390;51.460;5.710;2022-11-04T08:50:54;10.00;99.90
33023;DHT22;19390;51.460;5.710;2022-11-04T08:53:20;9.80;99.90
33023;DHT22;19390;51.460;5.710;2022-11-04T08:55:47;9.60;99.90
33023;DHT22;19390;51.460;5.710;2022-11-04T08:58:13;9.70;99.90
33023;DHT22;19390;51.460;5.710;2022-11-04T09:00:39;9.90;99.90
33023;DHT22;19390;51.460;5.710;2022-11-04T09:03:04;10.30;99.90
33023;DHT22;19390;51.460;5.710;2022-11-04T09:05:30;10.80;99.90
33023;DHT22;19390;51.460;5.710;2022-11-04T09:07:56;11.40;99.90
33023;DHT22;19390;51.460;5.710;2022-11-04T09:10:22;11.10;99.90
33023;DHT22;19390;51.460;5.710;2022-11-04T09:12:48;10.70;99.90
33023;DHT22;19390;51.460;5.710;2022-11-04T09:15:13;10.90;99.90
33023;DHT22;19390;51.460;5.710;2022-11-04T09:17:39;10.80;99.90
33023;DHT22;19390;51.460;5.710;2022-11-04T09:20:05;10.70;99.90
33023;DHT22;19390;51.460;5.710;2022-11-04T09:22:31;10.40;99.90
33023;DHT22;19390;51.460;5.710;2022-11-04T09:24:56;10.70;99.90
33023;DHT22;19390;51.460;5.710;2022-11-04T09:27:22;11.10;99.90
33023;DHT22;19390;51.460;5.710;2022-11-04T09:29:48;11.10;99.90
33023;DHT22;19390;51.460;5.710;2022-11-04T09:32:14;11.30;99.90
33023;DHT22;19390;51.460;5.710;2022-11-04T09:34:40;11.40;99.90
33023;DHT22;19390;51.460;5.710;2022-11-04T09:37:05;11.40;99.90
33023;DHT22;19390;51.460;5.710;2022-11-04T09:39:31;11.50;99.90
33023;DHT22;19390;51.460;5.710;2022-11-04T09:42:20;11.50;99.90
33023;DHT22;19390;51.460;5.710;2022-11-04T09:45:06;11.50;99.90
33023;DHT22;19390;51.460;5.710;2022-11-04T09:47:35;11.40;99.90
33023;DHT22;19390;51.460;5.710;2022-11-04T09:50:02;11.30;99.90
33023;DHT22;19390;51.460;5.710;2022-11-04T09:52:40;11.40;99.90
33023;DHT22;19390;51.460;5.710;2022-11-04T09:57:38;11.60;99.90
33023;DHT22;19390;51.460;5.710;2022-11-04T10:00:05;11.80;99.90
33023;DHT22;19390;51.460;5.710;2022-11-04T10:02:46;12.10;99.90
33023;DHT22;19390;51.460;5.710;2022-11-04T10:08:17;12.60;99.90
33023;DHT22;19390;51.460;5.710;2022-11-04T10:11:01;13.00;99.90
33023;DHT22;19390;51.460;5.710;2022-11-04T10:25:13;14.10;99.90
33023;DHT22;19390;51.460;5.710;2022-11-04T10:54:53;14.40;99.90
33023;DHT22;19390;51.460;5.710;2022-11-04T10:57:24;14.00;99.90
33023;DHT22;19390;51.460;5.710;2022-11-04T10:59:57;13.60;99.90
33023;DHT22;19390;51.460;5.710;2022-11-04T11:07:44;13.90;99.90
33023;DHT22;19390;51.460;5.710;2022-11-04T11:10:22;14.20;99.90
33023;DHT22;19390;51.460;5.710;2022-11-04T11:12:53;14.20;99.90
33023;DHT22;19390;51.460;5.710;2022-11-04T11:17:52;13.20;99.90
33023;DHT22;19390;51.460;5.710;2022-11-04T11:20:23;13.40;99.90
33023;DHT22;19390;51.460;5.710;2022-11-04T11:22:50;13.60;99.90
33023;DHT22;19390;51.460;5.710;2022-11-04T11:25:30;13.90;99.90
33023;DHT22;19390;51.460;5.710;2022-11-04T11:30:54;13.90;99.90
33023;DHT22;19390;51.460;5.710;2022-11-04T11:33:25;14.10;99.90
33023;DHT22;19390;51.460;5.710;2022-11-04T11:35:58;13.80;99.90
33023;DHT22;19390;51.460;5.710;2022-11-04T11:38:29;13.70;99.90
33023;DHT22;19390;51.460;5.710;2022-11-04T11:41:10;13.70;99.90
33023;DHT22;19390;51.460;5.710;2022-11-04T11:43:39;14.00;99.90
33023;DHT22;19390;51.460;5.710;2022-11-04T11:46:06;14.20;99.90
33023;DHT22;19390;51.460;5.710;2022-11-04T11:48:48;14.30;99.90
33023;DHT22;19390;51.460;5.710;2022-11-04T11:51:26;14.20;99.90
33023;DHT22;19390;51.460;5.710;2022-11-04T11:54:31;14.00;99.90
33023;DHT22;19390;51.460;5.710;2022-11-04T11:56:59;13.70;99.90
33023;DHT22;19390;51.460;5.710;2022-11-04T11:59:53;14.00;99.90
33023;DHT22;19390;51.460;5.710;2022-11-04T12:02:33;14.10;99.90
33023;DHT22;19390;51.460;5.710;2022-11-04T12:05:01;14.40;99.90
33023;DHT22;19390;51.460;5.710;2022-11-04T12:07:49;14.10;99.90
33023;DHT22;19390;51.460;5.710;2022-11-04T12:13:04;13.60;99.90
33023;DHT22;19390;51.460;5.710;2022-11-04T12:15:58;13.50;99.90
33023;DHT22;19390;51.460;5.710;2022-11-04T12:19:06;14.10;99.90
33023;DHT22;19390;51.460;5.710;2022-11-04T12:21:48;14.80;99.90
33023;DHT22;19390;51.460;5.710;2022-11-04T12:24:36;18.60;1.00
33023;DHT22;19390;51.460;5.710;2022-11-04T12:38:44;17.60;99.90
33023;DHT22;19390;51.460;5.710;2022-11-04T12:41:24;17.10;99.90
33023;DHT22;19390;51.460;5.710;2022-11-04T12:44:23;16.20;1.00
33023;DHT22;19390;51.460;5.710;2022-11-04T12:52:49;15.30;18.40
33023;DHT22;19390;51.460;5.710;2022-11-04T13:00:45;14.40;99.90
33023;DHT22;19390;51.460;5.710;2022-11-04T13:03:17;14.20;99.90
33023;DHT22;19390;51.460;5.710;2022-11-04T13:08:42;14.20;99.90
33023;DHT22;19390;51.460;5.710;2022-11-04T13:14:01;14.00;99.90
33023;DHT22;19390;51.460;5.710;2022-11-04T13:16:30;13.80;99.90
33023;DHT22;19390;51.460;5.710;2022-11-04T13:18:59;13.60;99.90
33023;DHT22;19390;51.460;5.710;2022-11-04T13:21:29;13.50;99.90
33023;DHT22;19390;51.460;5.710;2022-11-04T13:24:02;13.50;99.90
33023;DHT22;19390;51.460;5.710;2022-11-04T13:26:29;13.40;99.90
33023;DHT22;19390;51.460;5.710;2022-11-04T13:29:14;13.40;99.90
33023;DHT22;19390;51.460;5.710;2022-11-04T13:34:16;13.60;99.90
33023;DHT22;19390;51.460;5.710;2022-11-04T13:39:48;13.50;99.90
33023;DHT22;19390;51.460;5.710;2022-11-04T13:42:19;13.50;99.90
33023;DHT22;19390;51.460;5.710;2022-11-04T13:44:53;13.50;99.90
33023;DHT22;19390;51.460;5.710;2022-11-04T13:47:25;13.50;99.90
33023;DHT22;19390;51.460;5.710;2022-11-04T13:49:54;13.50;99.90
33023;DHT22;19390;51.460;5.710;2022-11-04T13:52:23;13.50;99.90
33023;DHT22;19390;51.460;5.710;2022-11-04T13:54:51;13.30;99.90
33023;DHT22;19390;51.460;5.710;2022-11-04T13:57:25;13.10;99.90
33023;DHT22;19390;51.460;5.710;2022-11-04T14:00:30;13.00;99.90
33023;DHT22;19390;51.460;5.710;2022-11-04T14:02:58;12.90;99.90
33023;DHT22;19390;51.460;5.710;2022-11-04T14:18:51;12.70;99.90
33023;DHT22;19390;51.460;5.710;2022-11-04T14:21:26;12.50;99.90
33023;DHT22;19390;51.460;5.710;2022-11-04T14:23:57;12.50;99.90
33023;DHT22;19390;51.460;5.710;2022-11-04T14:26:51;12.60;99.90
33023;DHT22;19390;51.460;5.710;2022-11-04T14:35:23;13.00;99.90
33023;DHT22;19390;51.460;5.710;2022-11-04T14:37:51;13.90;99.90
33023;DHT22;19390;51.460;5.710;2022-11-04T14:40:42;13.90;99.90
33023;DHT22;19390;51.460;5.710;2022-11-04T14:43:29;13.30;99.90
33023;DHT22;19390;51.460;5.710;2022-11-04T14:45:56;13.10;99.90
33023;DHT22;19390;51.460;5.710;2022-11-04T14:48:23;13.20;99.90
33023;DHT22;19390;51.460;5.710;2022-11-04T14:50:52;13.00;99.90
33023;DHT22;19390;51.460;5.710;2022-11-04T14:53:30;12.90;99.90
33023;DHT22;19390;51.460;5.710;2022-11-04T14:56:19;12.90;99.90
33023;DHT22;19390;51.460;5.710;2022-11-04T14:58:57;12.70;99.90
33023;DHT22;19390;51.460;5.710;2022-11-04T15:01:24;12.70;99.90
33023;DHT22;19390;51.460;5.710;2022-11-04T15:03:51;12.50;99.90
33023;DHT22;19390;51.460;5.710;2022-11-04T15:06:27;12.30;99.90
33023;DHT22;19390;51.460;5.710;2022-11-04T15:08:54;12.20;99.90
33023;DHT22;19390;51.460;5.710;2022-11-04T15:11:26;12.00;99.90
33023;DHT22;19390;51.460;5.710;2022-11-04T15:14:28;12.00;99.90
33023;DHT22;19390;51.460;5.710;2022-11-04T15:16:58;12.00;99.90
33023;DHT22;19390;51.460;5.710;2022-11-04T15:19:29;11.80;99.90
33023;DHT22;19390;51.460;5.710;2022-11-04T15:21:57;11.80;99.90
33023;DHT22;19390;51.460;5.710;2022-11-04T15:24:25;11.70;99.90
33023;DHT22;19390;51.460;5.710;2022-11-04T15:26:52;11.60;99.90
33023;DHT22;19390;51.460;5.710;2022-11-04T15:29:21;11.50;99.90
33023;DHT22;19390;51.460;5.710;2022-11-04T15:34:17;11.40;99.90
33023;DHT22;19390;51.460;5.710;2022-11-04T15:36:43;11.40;99.90
33023;DHT22;19390;51.460;5.710;2022-11-04T15:39:13;11.40;99.90
33023;DHT22;19390;51.460;5.710;2022-11-04T15:41:41;11.40;99.90
33023;DHT22;19390;51.460;5.710;2022-11-04T15:44:28;11.40;99.90
33023;DHT22;19390;51.460;5.710;2022-11-04T15:49:29;11.30;99.90
33023;DHT22;19390;51.460;5.710;2022-11-04T15:51:59;11.20;99.90
33023;DHT22;19390;51.460;5.710;2022-11-04T15:54:28;11.60;99.90
33023;DHT22;19390;51.460;5.710;2022-11-04T15:56:58;11.90;99.90
33023;DHT22;19390;51.460;5.710;2022-11-04T15:59:28;12.20;99.90
33023;DHT22;19390;51.460;5.710;2022-11-04T16:01:56;11.90;99.90
33023;DHT22;19390;51.460;5.710;2022-11-04T16:04:27;12.10;99.90
33023;DHT22;19390;51.460;5.710;2022-11-04T16:09:46;12.10;99.90
33023;DHT22;19390;51.460;5.710;2022-11-04T16:12:23;12.20;99.90
33023;DHT22;19390;51.460;5.710;2022-11-04T16:14:53;11.90;99.90
33023;DHT22;19390;51.460;5.710;2022-11-04T16:17:20;11.90;99.90
33023;DHT22;19390;51.460;5.710;2022-11-04T16:19:59;11.80;99.90
33023;DHT22;19390;51.460;5.710;2022-11-04T16:22:34;11.80;99.90
33023;DHT22;19390;51.460;5.710;2022-11-04T16:25:06;11.90;99.90
33023;DHT22;19390;51.460;5.710;2022-11-04T16:27:35;11.80;99.90
33023;DHT22;19390;51.460;5.710;2022-11-04T16:30:11;11.90;99.90
33023;DHT22;19390;51.460;5.710;2022-11-04T16:32:52;11.70;99.90
33023;DHT22;19390;51.460;5.710;2022-11-04T16:35:23;11.60;99.90
33023;DHT22;19390;51.460;5.710;2022-11-04T16:37:50;11.30;99.90
33023;DHT22;19390;51.460;5.710;2022-11-04T16:40:17;11.70;99.90
33023;DHT22;19390;51.460;5.710;2022-11-04T16:42:44;11.80;99.90
33023;DHT22;19390;51.460;5.710;2022-11-04T16:45:31;11.80;99.90
33023;DHT22;19390;51.460;5.710;2022-11-04T16:47:58;11.80;99.90
33023;DHT22;19390;51.460;5.710;2022-11-04T16:50:25;11.70;99.90
33023;DHT22;19390;51.460;5.710;2022-11-04T16:52:51;11.80;99.90
33023;DHT22;19390;51.460;5.710;2022-11-04T16:55:17;11.60;99.90
33023;DHT22;19390;51.460;5.710;2022-11-04T16:57:44;11.70;99.90
33023;DHT22;19390;51.460;5.710;2022-11-04T17:00:20;11.60;99.90
33023;DHT22;19390;51.460;5.710;2022-11-04T17:02:47;11.40;99.90
33023;DHT22;19390;51.460;5.710;2022-11-04T17:05:12;11.40;99.90
33023;DHT22;19390;51.460;5.710;2022-11-04T17:07:38;11.50;99.90
33023;DHT22;19390;51.460;5.710;2022-11-04T17:10:10;11.50;99.90
33023;DHT22;19390;51.460;5.710;2022-11-04T17:12:37;11.60;99.90
33023;DHT22;19390;51.460;5.710;2022-11-04T17:15:03;11.70;99.90
33023;DHT22;19390;51.460;5.710;2022-11-04T17:17:29;11.50;99.90
33023;DHT22;19390;51.460;5.710;2022-11-04T17:19:54;11.50;99.90
33023;DHT22;19390;51.460;5.710;2022-11-04T17:22:20;11.40;99.90
33023;DHT22;19390;51.460;5.710;2022-11-04T17:24:46;11.40;99.90
33023;DHT22;19390;51.460;5.710;2022-11-04T17:27:11;11.20;99.90
33023;DHT22;19390;51.460;5.710;2022-11-04T17:29:37;11.30;99.90
33023;DHT22;19390;51.460;5.710;2022-11-04T17:32:04;11.40;99.90
33023;DHT22;19390;51.460;5.710;2022-11-04T17:34:29;11.70;99.90
33023;DHT22;19390;51.460;5.710;2022-11-04T17:36:55;11.60;99.90
33023;DHT22;19390;51.460;5.710;2022-11-04T17:39:21;11.50;99.90
33023;DHT22;19390;51.460;5.710;2022-11-04T17:41:46;11.60;99.90
33023;DHT22;19390;51.460;5.710;2022-11-04T17:44:30;11.50;99.90
33023;DHT22;19390;51.460;5.710;2022-11-04T17:46:56;11.50;99.90
33023;DHT22;19390;51.460;5.710;2022-11-04T17:49:23;11.60;99.90
33023;DHT22;19390;51.460;5.710;2022-11-04T17:51:52;11.50;99.90
33023;DHT22;19390;51.460;5.710;2022-11-04T17:54:19;11.50;99.90
33023;DHT22;19390;51.460;5.710;2022-11-04T17:56:45;11.30;99.90
33023;DHT22;19390;51.460;5.710;2022-11-04T17:59:12;11.50;99.90
33023;DHT22;19390;51.460;5.710;2022-11-04T18:01:40;11.30;99.90
33023;DHT22;19390;51.460;5.710;2022-11-04T18:04:06;11.50;99.90
33023;DHT22;19390;51.460;5.710;2022-11-04T18:06:33;11.40;99.90
33023;DHT22;19390;51.460;5.710;2022-11-04T18:08:59;11.20;99.90
33023;DHT22;19390;51.460;5.710;2022-11-04T18:11:27;11.30;99.90
33023;DHT22;19390;51.460;5.710;2022-11-04T18:14:11;11.20;99.90
33023;DHT22;19390;51.460;5.710;2022-11-04T18:16:42;11.20;99.90
33023;DHT22;19390;51.460;5.710;2022-11-04T18:19:08;11.40;99.90
33023;DHT22;19390;51.460;5.710;2022-11-04T18:21:34;11.30;99.90
33023;DHT22;19390;51.460;5.710;2022-11-04T18:24:00;11.30;99.90
33023;DHT22;19390;51.460;5.710;2022-11-04T18:26:25;11.20;99.90
33023;DHT22;19390;51.460;5.710;2022-11-04T18:28:51;11.30;99.90
33023;DHT22;19390;51.460;5.710;2022-11-04T18:31:27;11.40;99.90
33023;DHT22;19390;51.460;5.710;2022-11-04T18:33:53;11.30;99.90
33023;DHT22;19390;51.460;5.710;2022-11-04T18:36:19;10.90;99.90
33023;DHT22;19390;51.460;5.710;2022-11-04T18:38:45;10.40;99.90
33023;DHT22;19390;51.460;5.710;2022-11-04T18:41:12;10.20;99.90
33023;DHT22;19390;51.460;5.710;2022-11-04T18:43:38;10.00;99.90
33023;DHT22;19390;51.460;5.710;2022-11-04T18:46:12;9.90;99.90
33023;DHT22;19390;51.460;5.710;2022-11-04T18:48:39;9.90;99.90
33023;DHT22;19390;51.460;5.710;2022-11-04T18:51:07;9.90;99.90
33023;DHT22;19390;51.460;5.710;2022-11-04T18:53:34;9.80;99.90
33023;DHT22;19390;51.460;5.710;2022-11-04T18:56:09;9.80;99.90
33023;DHT22;19390;51.460;5.710;2022-11-04T18:58:37;9.70;99.90
33023;DHT22;19390;51.460;5.710;2022-11-04T19:01:11;9.70;99.90
33023;DHT22;19390;51.460;5.710;2022-11-04T19:03:38;9.60;99.90
33023;DHT22;19390;51.460;5.710;2022-11-04T19:06:05;9.50;99.90
33023;DHT22;19390;51.460;5.710;2022-11-04T19:08:32;9.50;99.90
33023;DHT22;19390;51.460;5.710;2022-11-04T19:10:57;9.50;99.90
33023;DHT22;19390;51.460;5.710;2022-11-04T19:13:23;9.40;99.90
33023;DHT22;19390;51.460;5.710;2022-11-04T19:15:49;9.40;99.90
33023;DHT22;19390;51.460;5.710;2022-11-04T19:18:15;9.40;99.90
33023;DHT22;19390;51.460;5.710;2022-11-04T19:20:41;9.40;99.90
33023;DHT22;19390;51.460;5.710;2022-11-04T19:23:08;9.30;99.90
33023;DHT22;19390;51.460;5.710;2022-11-04T19:25:37;9.30;99.90
33023;DHT22;19390;51.460;5.710;2022-11-04T19:28:03;9.30;99.90
33023;DHT22;19390;51.460;5.710;2022-11-04T19:30:29;9.20;99.90
33023;DHT22;19390;51.460;5.710;2022-11-04T19:32:56;9.20;99.90
33023;DHT22;19390;51.460;5.710;2022-11-04T19:35:22;9.10;99.90
33023;DHT22;19390;51.460;5.710;2022-11-04T19:37:48;9.10;99.90
33023;DHT22;19390;51.460;5.710;2022-11-04T19:40:13;9.10;99.90
33023;DHT22;19390;51.460;5.710;2022-11-04T19:42:39;9.00;99.90
33023;DHT22;19390;51.460;5.710;2022-11-04T19:45:23;9.00;99.90
33023;DHT22;19390;51.460;5.710;2022-11-04T19:47:48;8.90;99.90
33023;DHT22;19390;51.460;5.710;2022-11-04T19:50:14;8.80;99.90
33023;DHT22;19390;51.460;5.710;2022-11-04T19:52:40;8.60;99.90
33023;DHT22;19390;51.460;5.710;2022-11-04T19:55:07;8.60;99.90
33023;DHT22;19390;51.460;5.710;2022-11-04T19:57:33;8.50;99.90
33023;DHT22;19390;51.460;5.710;2022-11-04T19:59:58;8.50;99.90
33023;DHT22;19390;51.460;5.710;2022-11-04T20:02:24;8.40;99.90
33023;DHT22;19390;51.460;5.710;2022-11-04T20:04:50;8.30;99.90